Shenandoah, IA (51601)

6:58 AM CST on February 10, 2016 (GMT -0600)
Cottage and Maple | | Change Station
CLOSE
Current Station
Personal Weather Station
Location: Shenandoah, IA
Elevation: 1016 ft
Nearby Weather Stations

Elev 1016 ft 40.76 °N, 95.37 °W | Updated 8 seconds ago

Overcast
Overcast
24.8 °F
Feels Like 25 °F
N
0.0
Wind Variable Wind from South
Gusts 6.0 mph

Today
High -- | Low -- °F
--% Chance of Precip.
Yesterday
High -- | Low -- °F
Precip. -- in
Pressure 30.08 in
Visibility 10.0 miles
Clouds Mostly Cloudy 6000 ft
Overcast 7000 ft
Windchill 25 °F
Dew Point 18 °F
Humidity 75%
Rainfall 0.00 in
Snow Depth Not available.
7:22 AM 5:49 PM
Waxing Crescent, 5% visible
METAR KSDA 101235Z AUTO 19006KT 10SM BKN060 OVC070 M03/M07 A3008 RMK AO2
Pressure 30.08 in
Visibility 10.0 miles
Clouds Mostly Cloudy 6000 ft
Overcast 7000 ft
Windchill 25 °F
Dew Point 18 °F
Humidity 75%
Rainfall 0.00 in
Snow Depth Not available.
7:22 AM 5:49 PM
Waxing Crescent, 5% visible
METAR KSDA 101235Z AUTO 19006KT 10SM BKN060 OVC070 M03/M07 A3008 RMK AO2

10-Day Weather Forecast

Almanac

Astronomy

Feb. 10, 2016 Rise Set
Actual Time
Civil Twilight
Nautical Twilight
Astronomical Twilight
Moon
Length of Visible Light
Length of Day
Tomorrow will be .
, % of the Moon is Illuminated

Today's Extremes

State Highs State Lows

Community

WunderPhotos

Upload Photos

1,891,837 photos uploaded!

WunderBlog® & News

Nearby

Air Quality

  Air Quality AQ Index Pollutant
Not available.

Snow Depth

Station Depth Elevation

Earthquake Activity

City Distance Mag. Time & Date
Minimum magnitude displayed is 2.5.

Coastal Water Temperatures

Place Temperature

Stations

Nearby Weather Stations

Station Location Temp. Windchill Dew Point Humidity Wind Precip. Elev Updated Type
                   

Watches & Warnings

There are currently no watches in effect.